Time;durP1;ratioP1;P1;durP2;ratioP2;P2;SDS_P1;SDS_P2;PMS_P1;PMS_P2;Temp;Humidity;BMP_temperature;BMP_pressure;BME280_temperature;BME280_humidity;BME280_pressure;Samples;Min_cycle;Max_cycle;Signal;HPM_P1;HPM_P2
2024/01/15 00:00:18;;;;;;;;;;;-2.70;99.90;;;;;;5082575;28;19909;-75
2024/01/15 00:02:43;;;;;;;;;;;-2.70;99.90;;;;;;5078523;28;19936;-75
2024/01/15 00:05:09;;;;;;;;;;;-2.80;99.90;;;;;;5080184;28;19909;-75
2024/01/15 00:07:35;;;;;;;;;;;-2.70;99.90;;;;;;5072087;28;20316;-75
2024/01/15 00:10:01;;;;;;;;;;;-2.70;99.90;;;;;;5084284;28;19995;-75
2024/01/15 00:12:26;;;;;;;;;;;-2.70;99.90;;;;;;5075461;28;19987;-75
2024/01/15 00:14:52;;;;;;;;;;;-2.70;99.90;;;;;;5081091;28;19917;-75
2024/01/15 00:17:17;;;;;;;;;;;-2.70;99.90;;;;;;5076930;28;20264;-75
2024/01/15 00:19:43;;;;;;;;;;;-2.70;99.90;;;;;;5077204;28;19908;-75
2024/01/15 00:22:08;;;;;;;;;;;-2.70;99.90;;;;;;5072656;28;19912;-75
2024/01/15 00:25:37;;;;;;;;;;;-2.70;99.90;;;;;;5134518;27;20372;-75
2024/01/15 00:28:03;;;;;;;;;;;-2.60;99.90;;;;;;5123933;27;19922;-75
2024/01/15 00:30:28;;;;;;;;;;;-2.70;99.90;;;;;;5127164;27;19976;-75
2024/01/15 00:32:54;;;;;;;;;;;-2.70;99.90;;;;;;5128337;27;20384;-75
2024/01/15 00:35:19;;;;;;;;;;;-2.70;99.90;;;;;;5127295;27;19912;-75
2024/01/15 00:37:45;;;;;;;;;;;-2.70;99.90;;;;;;5127980;27;19912;-75
2024/01/15 00:40:10;;;;;;;;;;;-2.70;99.90;;;;;;5132505;27;20439;-75
2024/01/15 00:42:36;;;;;;;;;;;-3.00;99.90;;;;;;5122674;27;20379;-75
2024/01/15 00:45:01;;;;;;;;;;;-2.90;99.90;;;;;;5116683;27;19912;-75
2024/01/15 00:47:27;;;;;;;;;;;-3.00;99.90;;;;;;5124955;27;20390;-75
2024/01/15 00:49:52;;;;;;;;;;;-3.40;99.90;;;;;;5109175;27;20454;-75
2024/01/15 00:52:18;;;;;;;;;;;-3.20;99.90;;;;;;5137312;27;19947;-75
2024/01/15 00:54:43;;;;;;;;;;;-3.20;99.90;;;;;;5122289;27;19908;-75
2024/01/15 00:57:08;;;;;;;;;;;-3.30;99.90;;;;;;5124643;27;20354;-75
2024/01/15 00:59:34;;;;;;;;;;;-3.40;99.90;;;;;;5128358;27;19907;-75
2024/01/15 01:01:59;;;;;;;;;;;-3.40;99.90;;;;;;5140571;27;19912;-75
2024/01/15 01:04:25;;;;;;;;;;;-3.50;99.90;;;;;;5127299;27;20292;-75
2024/01/15 01:06:50;;;;;;;;;;;-3.50;99.90;;;;;;5122441;27;20048;-75
2024/01/15 01:09:16;;;;;;;;;;;-3.50;99.90;;;;;;5129600;27;19918;-75
2024/01/15 01:11:41;;;;;;;;;;;-3.40;99.90;;;;;;5126338;27;19908;-75
2024/01/15 01:14:07;;;;;;;;;;;-3.30;99.90;;;;;;5128132;27;19994;-75
2024/01/15 01:16:38;;;;;;;;;;;-3.20;99.90;;;;;;5116101;27;20713;-75
2024/01/15 01:19:04;;;;;;;;;;;-3.10;99.90;;;;;;5133754;27;19955;-75
2024/01/15 01:21:30;;;;;;;;;;;-3.00;99.90;;;;;;5119403;27;20329;-75
2024/01/15 01:23:55;;;;;;;;;;;-3.00;99.90;;;;;;5138961;27;19915;-76
2024/01/15 01:26:21;;;;;;;;;;;-2.90;99.90;;;;;;5130389;27;19912;-75
2024/01/15 01:28:46;;;;;;;;;;;-2.80;99.90;;;;;;5122654;27;19907;-75
2024/01/15 01:31:12;;;;;;;;;;;-2.80;99.90;;;;;;5120635;27;20347;-75
2024/01/15 01:33:38;;;;;;;;;;;-2.70;99.90;;;;;;5142386;27;19911;-75
2024/01/15 01:36:07;;;;;;;;;;;-2.70;99.90;;;;;;5120851;27;19962;-75
2024/01/15 01:38:32;;;;;;;;;;;-2.60;99.90;;;;;;5123074;27;20006;-75
2024/01/15 01:40:57;;;;;;;;;;;-2.60;99.90;;;;;;5119967;27;19907;-75
2024/01/15 01:43:23;;;;;;;;;;;-2.60;99.90;;;;;;5115633;27;19945;-75
2024/01/15 01:45:48;;;;;;;;;;;-2.60;99.90;;;;;;5109071;27;20108;-75
2024/01/15 01:48:14;;;;;;;;;;;-2.70;99.90;;;;;;5113035;27;19926;-75
2024/01/15 01:50:39;;;;;;;;;;;-2.50;99.90;;;;;;5120981;27;19934;-75
2024/01/15 01:53:05;;;;;;;;;;;-2.50;99.90;;;;;;5126849;27;19907;-75
2024/01/15 01:55:33;;;;;;;;;;;-2.80;99.90;;;;;;5118727;27;19950;-75
2024/01/15 01:57:59;;;;;;;;;;;-2.40;99.90;;;;;;5129473;27;19915;-75
2024/01/15 02:00:24;;;;;;;;;;;-2.40;99.90;;;;;;5122909;27;19907;-75
2024/01/15 02:02:50;;;;;;;;;;;-2.50;99.90;;;;;;5111107;27;19915;-75
2024/01/15 02:05:16;;;;;;;;;;;;;;;;;;5114044;27;19912;-75
2024/01/15 02:07:41;;;;;;;;;;;-2.60;99.90;;;;;;5124521;27;19908;-75
2024/01/15 02:10:07;;;;;;;;;;;-2.60;99.90;;;;;;5122680;27;19947;-75
2024/01/15 02:12:33;;;;;;;;;;;-2.60;99.90;;;;;;5117311;27;20444;-75
2024/01/15 02:14:58;;;;;;;;;;;-2.80;99.90;;;;;;5124911;27;19908;-75
2024/01/15 02:17:24;;;;;;;;;;;-2.70;99.90;;;;;;5111905;27;19920;-75
2024/01/15 02:19:49;;;;;;;;;;;-2.90;99.90;;;;;;5110575;27;20410;-75
2024/01/15 02:22:15;;;;;;;;;;;-2.80;99.90;;;;;;5111709;27;19915;-75
2024/01/15 02:24:40;;;;;;;;;;;-2.70;99.90;;;;;;5116984;27;19920;-75
2024/01/15 02:27:06;;;;;;;;;;;-2.80;99.90;;;;;;5126782;27;20360;-75
2024/01/15 02:29:31;;;;;;;;;;;-2.80;99.90;;;;;;5124649;27;20371;-75
2024/01/15 02:31:57;;;;;;;;;;;-2.90;99.90;;;;;;5124634;27;20260;-75
2024/01/15 02:34:22;;;;;;;;;;;-2.70;99.90;;;;;;5111378;27;19908;-75
2024/01/15 02:36:48;;;;;;;;;;;-2.80;99.90;;;;;;5105685;27;19927;-75
2024/01/15 02:39:13;;;;;;;;;;;-3.00;99.90;;;;;;5105820;28;19973;-75
2024/01/15 02:41:39;;;;;;;;;;;-3.10;99.90;;;;;;5120982;27;20275;-75
2024/01/15 02:44:04;;;;;;;;;;;-3.20;99.90;;;;;;5122267;27;19918;-75
2024/01/15 02:46:30;;;;;;;;;;;-3.30;99.90;;;;;;5131522;27;19998;-75
2024/01/15 02:48:55;;;;;;;;;;;-3.30;99.90;;;;;;5116981;27;19907;-75
2024/01/15 02:51:21;;;;;;;;;;;-3.40;99.90;;;;;;5115272;27;19907;-75
2024/01/15 02:53:46;;;;;;;;;;;-3.60;99.90;;;;;;5125802;27;20020;-75
2024/01/15 02:56:12;;;;;;;;;;;;;;;;;;5118780;27;20363;-75
2024/01/15 02:58:37;;;;;;;;;;;-3.50;99.90;;;;;;5125425;27;20399;-75
2024/01/15 03:01:03;;;;;;;;;;;-3.50;99.90;;;;;;5119690;27;19908;-75
2024/01/15 03:03:28;;;;;;;;;;;-3.30;99.90;;;;;;5120077;27;19911;-75
2024/01/15 03:05:54;;;;;;;;;;;-3.60;99.90;;;;;;5122730;27;19953;-75
2024/01/15 03:08:19;;;;;;;;;;;-3.70;99.90;;;;;;5130203;27;19964;-75
2024/01/15 03:10:45;;;;;;;;;;;-4.00;99.90;;;;;;5120012;27;19908;-75
2024/01/15 03:15:31;;;;;;;;;;;-3.80;99.90;;;;;;5086652;28;19912;-76
2024/01/15 03:17:57;;;;;;;;;;;-3.60;99.90;;;;;;5066519;28;20023;-75
2024/01/15 03:20:22;;;;;;;;;;;-3.70;99.90;;;;;;5052394;28;19909;-75
2024/01/15 03:22:48;;;;;;;;;;;-3.60;99.90;;;;;;5046717;28;19952;-75
2024/01/15 03:25:14;;;;;;;;;;;-3.50;99.90;;;;;;5046527;28;19989;-75
2024/01/15 03:27:39;;;;;;;;;;;-3.40;99.90;;;;;;5046046;28;19916;-75
2024/01/15 03:30:05;;;;;;;;;;;-3.40;99.90;;;;;;5044790;28;19913;-75
2024/01/15 03:32:30;;;;;;;;;;;-3.30;99.90;;;;;;5046648;28;20171;-75
2024/01/15 03:34:56;;;;;;;;;;;-3.30;99.90;;;;;;5044644;28;20377;-75
2024/01/15 03:37:21;;;;;;;;;;;-3.50;99.90;;;;;;5046386;28;19909;-75
2024/01/15 03:39:47;;;;;;;;;;;-3.60;99.90;;;;;;5045180;28;19954;-75
2024/01/15 03:42:14;;;;;;;;;;;-3.50;99.90;;;;;;5046189;28;19909;-75
2024/01/15 03:44:39;;;;;;;;;;;-3.20;99.90;;;;;;5045839;28;19909;-75
2024/01/15 03:47:05;;;;;;;;;;;-2.70;99.90;;;;;;5046198;28;19909;-75
2024/01/15 03:49:30;;;;;;;;;;;-2.50;99.90;;;;;;5045706;28;20372;-75
2024/01/15 03:51:56;;;;;;;;;;;-2.20;99.90;;;;;;5045925;28;20285;-75
2024/01/15 03:54:21;;;;;;;;;;;-2.20;99.90;;;;;;5045967;28;19913;-76
2024/01/15 03:56:47;;;;;;;;;;;-2.20;99.90;;;;;;5045904;28;19909;-75
2024/01/15 03:59:12;;;;;;;;;;;-2.20;99.90;;;;;;5045191;28;20357;-75
2024/01/15 04:01:38;;;;;;;;;;;-1.60;99.90;;;;;;5045416;28;19909;-76
2024/01/15 04:04:03;;;;;;;;;;;-2.20;99.90;;;;;;5045704;28;19999;-76
2024/01/15 04:06:28;;;;;;;;;;;-2.10;99.90;;;;;;5078237;28;19909;-75
2024/01/15 04:08:54;;;;;;;;;;;-2.20;99.90;;;;;;5050707;28;20373;-76
2024/01/15 04:11:19;;;;;;;;;;;-2.20;99.90;;;;;;5044682;28;19950;-75
2024/01/15 04:13:45;;;;;;;;;;;-2.10;99.90;;;;;;5058681;28;19924;-76
2024/01/15 04:16:10;;;;;;;;;;;-2.20;99.90;;;;;;5065329;28;19963;-75
2024/01/15 04:18:36;;;;;;;;;;;-2.10;99.90;;;;;;5073733;28;19959;-75
2024/01/15 04:21:03;;;;;;;;;;;-2.10;99.90;;;;;;5064208;28;20420;-75
2024/01/15 04:23:29;;;;;;;;;;;-2.10;99.90;;;;;;5064860;28;20515;-76
2024/01/15 04:25:54;;;;;;;;;;;-2.10;99.90;;;;;;5057067;28;19952;-75
2024/01/15 04:28:20;;;;;;;;;;;-2.10;99.90;;;;;;5051644;28;20407;-76
2024/01/15 04:30:45;;;;;;;;;;;-2.10;99.90;;;;;;5050841;28;19908;-75
2024/01/15 04:33:11;;;;;;;;;;;-2.10;99.90;;;;;;5033970;28;19967;-75
2024/01/15 04:35:37;;;;;;;;;;;-2.10;99.90;;;;;;5052038;28;19916;-76
2024/01/15 04:38:02;;;;;;;;;;;-2.20;99.90;;;;;;5033698;28;19916;-76
2024/01/15 04:40:28;;;;;;;;;;;-2.10;99.90;;;;;;5051047;28;19908;-76
2024/01/15 04:42:54;;;;;;;;;;;-2.10;99.90;;;;;;5051239;28;20274;-76
2024/01/15 04:45:22;;;;;;;;;;;-2.10;99.90;;;;;;5051773;28;20012;-76
2024/01/15 04:47:48;;;;;;;;;;;-2.10;99.90;;;;;;5051576;28;20316;-76
2024/01/15 04:50:13;;;;;;;;;;;-2.10;99.90;;;;;;5050845;28;19913;-76
2024/01/15 04:52:39;;;;;;;;;;;-2.10;99.90;;;;;;5063385;28;19909;-75
2024/01/15 04:55:04;;;;;;;;;;;-2.10;99.90;;;;;;5055295;28;20011;-76
2024/01/15 04:57:30;;;;;;;;;;;-2.10;99.90;;;;;;5056511;28;20380;-76
2024/01/15 04:59:55;;;;;;;;;;;-2.10;99.90;;;;;;5050749;28;19991;-76
2024/01/15 05:02:21;;;;;;;;;;;-2.10;99.90;;;;;;5052267;28;19909;-76
2024/01/15 05:04:46;;;;;;;;;;;-2.10;99.90;;;;;;5051752;28;19913;-76
2024/01/15 05:07:12;;;;;;;;;;;-2.10;99.90;;;;;;5051378;28;20344;-76
2024/01/15 05:09:37;;;;;;;;;;;-2.10;99.90;;;;;;5050980;28;19909;-76
2024/01/15 05:12:03;;;;;;;;;;;;;;;;;;5051496;28;19960;-76
2024/01/15 05:14:29;;;;;;;;;;;-2.00;99.90;;;;;;5051580;28;20293;-76
2024/01/15 05:16:54;;;;;;;;;;;-2.10;99.90;;;;;;5051522;28;19956;-76
2024/01/15 05:19:19;;;;;;;;;;;-2.00;99.90;;;;;;5050753;28;19975;-76
2024/01/15 05:21:45;;;;;;;;;;;-1.90;99.90;;;;;;5051564;28;19939;-76
2024/01/15 05:24:10;;;;;;;;;;;-2.00;99.90;;;;;;5058960;28;19908;-76
2024/01/15 05:26:36;;;;;;;;;;;-2.00;99.90;;;;;;5050721;28;19915;-76
2024/01/15 05:29:01;;;;;;;;;;;-2.00;99.90;;;;;;5050704;28;19912;-76
2024/01/15 05:31:27;;;;;;;;;;;-2.00;99.90;;;;;;5058445;28;19909;-76
2024/01/15 05:33:53;;;;;;;;;;;-2.00;99.90;;;;;;5060202;28;19963;-76
2024/01/15 05:36:18;;;;;;;;;;;-2.00;99.90;;;;;;5053576;28;20000;-75
2024/01/15 05:38:44;;;;;;;;;;;-1.90;99.90;;;;;;5058629;28;19948;-76
2024/01/15 05:41:09;;;;;;;;;;;-2.00;99.90;;;;;;5049700;28;20357;-76
2024/01/15 05:43:35;;;;;;;;;;;-2.00;99.90;;;;;;5032867;28;19999;-76
2024/01/15 05:46:00;;;;;;;;;;;-2.00;99.90;;;;;;5050554;28;20120;-76
2024/01/15 05:48:26;;;;;;;;;;;-2.10;99.90;;;;;;5046119;28;19963;-76
2024/01/15 05:50:51;;;;;;;;;;;-2.10;99.90;;;;;;5055600;28;20373;-76
2024/01/15 05:53:17;;;;;;;;;;;-2.10;99.90;;;;;;5050334;28;19908;-76
2024/01/15 05:55:42;;;;;;;;;;;-2.10;99.90;;;;;;5050295;28;20003;-77
2024/01/15 05:58:08;;;;;;;;;;;-2.00;99.90;;;;;;5050175;28;20289;-77
2024/01/15 06:00:35;;;;;;;;;;;-2.10;99.90;;;;;;5049538;28;20003;-77
2024/01/15 06:03:00;;;;;;;;;;;-2.20;99.90;;;;;;5051661;28;20000;-77
2024/01/15 06:05:26;;;;;;;;;;;-2.10;99.90;;;;;;5051637;28;19948;-77
2024/01/15 06:07:51;;;;;;;;;;;-2.10;99.90;;;;;;5054231;28;20373;-77
2024/01/15 06:10:17;;;;;;;;;;;-2.10;99.90;;;;;;5057251;28;20292;-77
2024/01/15 06:12:45;;;;;;;;;;;-2.10;99.90;;;;;;5052455;28;19908;-77
2024/01/15 06:15:11;;;;;;;;;;;-2.10;99.90;;;;;;5048762;28;20361;-76
2024/01/15 06:17:37;;;;;;;;;;;-2.00;99.90;;;;;;5055854;28;19908;-76
2024/01/15 06:20:03;;;;;;;;;;;-2.10;99.90;;;;;;5053237;28;19909;-76
2024/01/15 06:22:28;;;;;;;;;;;-2.00;99.90;;;;;;5055838;28;19909;-76
2024/01/15 06:24:55;;;;;;;;;;;-2.00;99.90;;;;;;5052667;28;19955;-76
2024/01/15 06:27:20;;;;;;;;;;;-2.00;99.90;;;;;;5055635;28;20372;-76
2024/01/15 06:29:49;;;;;;;;;;;-2.00;99.90;;;;;;5061568;28;19992;-76
2024/01/15 06:32:14;;;;;;;;;;;-2.00;99.90;;;;;;5049347;28;19909;-76
2024/01/15 06:34:40;;;;;;;;;;;-2.00;99.90;;;;;;5050076;28;19982;-76
2024/01/15 06:37:06;;;;;;;;;;;-2.10;99.90;;;;;;5051430;28;19955;-76
2024/01/15 06:39:31;;;;;;;;;;;-2.00;99.90;;;;;;5052476;28;19959;-76
2024/01/15 06:41:56;;;;;;;;;;;-1.90;99.90;;;;;;5031559;28;20329;-76
2024/01/15 06:44:22;;;;;;;;;;;-2.00;99.90;;;;;;5057922;28;19959;-76
2024/01/15 06:46:48;;;;;;;;;;;-1.90;99.90;;;;;;5049899;28;19909;-76
2024/01/15 06:49:13;;;;;;;;;;;-2.00;99.90;;;;;;5052336;28;20399;-77
2024/01/15 06:51:39;;;;;;;;;;;-2.00;99.90;;;;;;5049912;28;19909;-76
2024/01/15 06:54:04;;;;;;;;;;;-2.00;99.90;;;;;;5048990;28;19913;-76
2024/01/15 06:56:30;;;;;;;;;;;-2.00;99.90;;;;;;5054163;28;19909;-76
2024/01/15 06:58:56;;;;;;;;;;;-2.00;99.90;;;;;;5052090;28;19909;-76
2024/01/15 07:01:22;;;;;;;;;;;-1.90;99.90;;;;;;5049010;28;19909;-77
2024/01/15 07:03:47;;;;;;;;;;;-2.00;99.90;;;;;;5046360;28;19916;-76
2024/01/15 07:06:13;;;;;;;;;;;-1.90;99.90;;;;;;5048865;28;20041;-76
2024/01/15 07:08:39;;;;;;;;;;;-1.90;99.90;;;;;;5045472;28;19909;-76
2024/01/15 07:11:05;;;;;;;;;;;-2.00;99.90;;;;;;5048499;28;19909;-76
2024/01/15 07:13:31;;;;;;;;;;;-1.90;99.90;;;;;;5049256;28;19921;-76
2024/01/15 07:15:56;;;;;;;;;;;-1.90;99.90;;;;;;5051217;28;19909;-76
2024/01/15 07:18:23;;;;;;;;;;;-1.90;99.90;;;;;;5052498;28;20642;-76
2024/01/15 07:20:48;;;;;;;;;;;-1.90;99.90;;;;;;5050358;28;19963;-76
2024/01/15 07:23:14;;;;;;;;;;;-1.90;99.90;;;;;;5052705;28;20340;-76
2024/01/15 07:25:39;;;;;;;;;;;-1.90;99.90;;;;;;5050814;28;19919;-76
2024/01/15 07:28:05;;;;;;;;;;;-1.80;99.90;;;;;;5050948;28;20438;-76
2024/01/15 07:30:30;;;;;;;;;;;-1.80;99.90;;;;;;5049652;28;19916;-76
2024/01/15 07:32:56;;;;;;;;;;;;;;;;;;5049370;28;19963;-76
2024/01/15 07:35:22;;;;;;;;;;;-1.80;99.90;;;;;;5057859;28;19919;-76
2024/01/15 07:37:47;;;;;;;;;;;-1.70;99.90;;;;;;5049545;28;19947;-76
2024/01/15 07:40:13;;;;;;;;;;;-1.80;99.90;;;;;;5048187;28;19908;-76
2024/01/15 07:42:38;;;;;;;;;;;-1.80;99.90;;;;;;5049435;28;19909;-76
2024/01/15 07:45:04;;;;;;;;;;;-1.70;99.90;;;;;;5031023;28;19962;-76
2024/01/15 07:47:30;;;;;;;;;;;-1.60;99.90;;;;;;5049208;28;20293;-76
2024/01/15 07:49:56;;;;;;;;;;;-1.70;99.90;;;;;;5048507;28;20363;-76
2024/01/15 07:52:21;;;;;;;;;;;-1.70;99.90;;;;;;5048633;28;20395;-76
2024/01/15 07:54:47;;;;;;;;;;;-1.80;99.90;;;;;;5049174;28;19913;-76
2024/01/15 07:57:13;;;;;;;;;;;-1.10;99.90;;;;;;5048761;28;19909;-76
2024/01/15 07:59:40;;;;;;;;;;;-1.50;99.90;;;;;;5053101;28;20434;-76
2024/01/15 08:02:05;;;;;;;;;;;-1.50;99.90;;;;;;5051912;28;19912;-76
2024/01/15 08:04:31;;;;;;;;;;;-1.50;99.90;;;;;;5048528;28;20207;-76
2024/01/15 08:06:57;;;;;;;;;;;-1.40;99.90;;;;;;5053490;28;20358;-76
2024/01/15 08:09:22;;;;;;;;;;;-1.40;99.90;;;;;;5051702;28;19913;-77
2024/01/15 08:11:49;;;;;;;;;;;-1.40;99.90;;;;;;5052393;28;20938;-77
2024/01/15 08:14:14;;;;;;;;;;;-1.40;99.90;;;;;;5052234;28;20301;-77
2024/01/15 08:16:40;;;;;;;;;;;;;;;;;;5034834;28;19917;-75
2024/01/15 08:19:06;;;;;;;;;;;-1.40;99.90;;;;;;5052137;28;20324;-75
2024/01/15 08:21:31;;;;;;;;;;;-1.30;99.90;;;;;;5051477;28;20373;-75
2024/01/15 08:23:58;;;;;;;;;;;-1.50;99.90;;;;;;5053556;28;20378;-75
2024/01/15 08:26:23;;;;;;;;;;;-1.30;99.90;;;;;;5053438;28;19909;-75
2024/01/15 08:28:49;;;;;;;;;;;-1.20;99.90;;;;;;5053653;28;20046;-76
2024/01/15 08:31:14;;;;;;;;;;;-1.20;99.90;;;;;;5052584;28;20091;-76
2024/01/15 08:33:40;;;;;;;;;;;-0.90;99.90;;;;;;5053370;28;20435;-75
2024/01/15 08:36:05;;;;;;;;;;;-1.20;99.90;;;;;;5052356;28;20384;-76
2024/01/15 08:38:31;;;;;;;;;;;-1.10;99.90;;;;;;5053297;28;20040;-75
2024/01/15 08:40:58;;;;;;;;;;;-1.00;99.90;;;;;;5052202;28;19912;-75
2024/01/15 08:43:24;;;;;;;;;;;-1.00;99.90;;;;;;5053064;28;19931;-76
2024/01/15 08:45:50;;;;;;;;;;;-1.00;99.90;;;;;;5061132;28;19944;-75
2024/01/15 08:48:16;;;;;;;;;;;-1.00;99.90;;;;;;5054149;28;19908;-76
2024/01/15 08:50:42;;;;;;;;;;;-0.90;99.90;;;;;;5051532;28;20296;-76
2024/01/15 08:53:07;;;;;;;;;;;-0.90;99.90;;;;;;5052533;28;19952;-76
2024/01/15 08:55:33;;;;;;;;;;;-1.00;99.90;;;;;;5052498;28;19919;-76
2024/01/15 08:57:58;;;;;;;;;;;-1.00;99.90;;;;;;5052835;28;19989;-76
2024/01/15 09:00:23;;;;;;;;;;;-0.70;99.90;;;;;;5033863;28;20324;-76
2024/01/15 09:02:49;;;;;;;;;;;-0.60;99.90;;;;;;5052693;28;19955;-75
2024/01/15 09:05:15;;;;;;;;;;;-0.60;99.90;;;;;;5046736;28;19909;-76
2024/01/15 09:07:40;;;;;;;;;;;-0.50;99.90;;;;;;5035551;28;20400;-75
2024/01/15 09:10:06;;;;;;;;;;;-0.50;99.90;;;;;;5051311;28;19913;-76
2024/01/15 09:12:31;;;;;;;;;;;-0.50;99.90;;;;;;5052498;28;20000;-76
2024/01/15 09:14:57;;;;;;;;;;;-0.40;99.90;;;;;;5052308;28;20389;-76
2024/01/15 09:17:28;;;;;;;;;;;-0.40;99.90;;;;;;5052041;28;19908;-76
2024/01/15 09:19:53;;;;;;;;;;;-0.40;99.90;;;;;;5050768;28;20344;-76
2024/01/15 09:22:19;;;;;;;;;;;-0.30;99.90;;;;;;5053498;28;19940;-76
2024/01/15 09:27:18;;;;;;;;;;;-0.40;99.90;;;;;;5058598;28;20376;-74
2024/01/15 09:29:45;;;;;;;;;;;-0.40;99.90;;;;;;5058670;28;19941;-74
2024/01/15 09:32:11;;;;;;;;;;;-0.30;99.90;;;;;;5062660;28;19982;-75
2024/01/15 09:34:36;;;;;;;;;;;-0.20;99.90;;;;;;5061681;28;20429;-75
2024/01/15 09:37:02;;;;;;;;;;;-0.20;99.90;;;;;;5063376;28;19912;-75
2024/01/15 09:39:28;;;;;;;;;;;-0.10;99.90;;;;;;5062221;28;20377;-76
2024/01/15 09:41:54;;;;;;;;;;;0.00;99.90;;;;;;5073600;28;19913;-76
2024/01/15 09:44:20;;;;;;;;;;;0.00;99.90;;;;;;5066135;28;19909;-76
2024/01/15 09:46:46;;;;;;;;;;;0.00;99.90;;;;;;5063013;28;19909;-75
2024/01/15 09:49:12;;;;;;;;;;;0.00;99.90;;;;;;5043022;28;19916;-76
2024/01/15 09:51:38;;;;;;;;;;;0.10;99.90;;;;;;5068649;28;19909;-76
2024/01/15 09:54:04;;;;;;;;;;;0.10;99.90;;;;;;5070840;28;20261;-75
2024/01/15 09:56:30;;;;;;;;;;;0.40;99.90;;;;;;5063134;28;20051;-76
2024/01/15 09:58:57;;;;;;;;;;;0.20;99.90;;;;;;5044535;28;19947;-75
2024/01/15 10:01:22;;;;;;;;;;;0.10;99.90;;;;;;5049058;28;19908;-76
2024/01/15 10:03:48;;;;;;;;;;;0.20;99.90;;;;;;5058377;28;19916;-76
2024/01/15 10:06:17;;;;;;;;;;;0.20;99.90;;;;;;5054565;28;20307;-75
2024/01/15 10:08:43;;;;;;;;;;;0.20;99.90;;;;;;5047544;28;20277;-76
2024/01/15 10:11:09;;;;;;;;;;;0.20;99.90;;;;;;5044876;28;19941;-76
2024/01/15 10:13:35;;;;;;;;;;;0.10;99.90;;;;;;5069865;28;20303;-76
2024/01/15 10:16:02;;;;;;;;;;;0.00;99.90;;;;;;5037371;28;19919;-75
2024/01/15 10:18:28;;;;;;;;;;;0.00;99.90;;;;;;5058182;28;19916;-75
2024/01/15 10:20:53;;;;;;;;;;;0.10;99.90;;;;;;5042951;28;19912;-76
2024/01/15 10:23:19;;;;;;;;;;;0.10;99.90;;;;;;5061092;28;19915;-76
2024/01/15 10:25:45;;;;;;;;;;;0.10;99.90;;;;;;5051522;28;19925;-75
2024/01/15 10:28:10;;;;;;;;;;;0.10;99.90;;;;;;5061512;28;19912;-76
2024/01/15 10:30:36;;;;;;;;;;;0.00;99.90;;;;;;5062813;28;19909;-75
2024/01/15 10:33:02;;;;;;;;;;;0.10;99.90;;;;;;5038185;28;20276;-75
2024/01/15 10:35:32;;;;;;;;;;;0.20;99.90;;;;;;5060858;28;19960;-76
2024/01/15 10:37:58;;;;;;;;;;;0.30;99.90;;;;;;5068298;28;19924;-75
2024/01/15 10:40:23;;;;;;;;;;;0.30;99.90;;;;;;5049829;28;19932;-74
2024/01/15 10:42:49;;;;;;;;;;;0.30;99.90;;;;;;5059788;28;20357;-76
2024/01/15 10:45:14;;;;;;;;;;;0.20;99.90;;;;;;5047859;28;19909;-76
2024/01/15 10:47:43;;;;;;;;;;;0.40;99.90;;;;;;5059924;28;19966;-75
2024/01/15 10:50:09;;;;;;;;;;;0.40;99.90;;;;;;5066163;28;19916;-75
2024/01/15 10:52:35;;;;;;;;;;;0.40;99.90;;;;;;5058905;28;19909;-75
2024/01/15 10:55:02;;;;;;;;;;;0.40;99.90;;;;;;5052176;28;19913;-76
2024/01/15 10:57:28;;;;;;;;;;;0.40;99.90;;;;;;5069053;28;19919;-76
2024/01/15 10:59:53;;;;;;;;;;;0.40;99.90;;;;;;5042727;28;19909;-76
2024/01/15 11:02:19;;;;;;;;;;;0.30;99.90;;;;;;5053703;28;19915;-75
2024/01/15 11:04:44;;;;;;;;;;;0.30;99.90;;;;;;5064654;28;19915;-76
2024/01/15 11:07:11;;;;;;;;;;;0.20;99.90;;;;;;5057278;28;19920;-76
2024/01/15 11:09:37;;;;;;;;;;;0.20;99.90;;;;;;5070343;28;19909;-76
2024/01/15 11:12:12;;;;;;;;;;;0.20;99.90;;;;;;5067961;28;19966;-75
2024/01/15 11:14:48;;;;;;;;;;;0.30;99.90;;;;;;5050046;28;19925;-76
2024/01/15 11:17:14;;;;;;;;;;;0.20;99.90;;;;;;5050682;28;19959;-74
2024/01/15 11:19:42;;;;;;;;;;;0.20;99.90;;;;;;5059266;28;19909;-75
2024/01/15 11:22:09;;;;;;;;;;;0.20;99.90;;;;;;5060364;28;20446;-75
2024/01/15 11:24:36;;;;;;;;;;;0.20;99.90;;;;;;5047526;28;19919;-74
2024/01/15 11:27:01;;;;;;;;;;;0.20;99.90;;;;;;5062579;28;19921;-76
2024/01/15 11:29:27;;;;;;;;;;;0.20;99.90;;;;;;5066256;28;20377;-75
2024/01/15 11:31:55;;;;;;;;;;;0.20;99.90;;;;;;5064750;28;20304;-74
2024/01/15 11:34:21;;;;;;;;;;;0.20;99.90;;;;;;5040766;28;19916;-75
2024/01/15 11:36:50;;;;;;;;;;;0.10;99.90;;;;;;5050648;28;19908;-75
2024/01/15 11:39:27;;;;;;;;;;;0.20;99.90;;;;;;5065694;28;20284;-75
2024/01/15 11:41:56;;;;;;;;;;;0.20;99.90;;;;;;5063651;28;20050;-76
2024/01/15 11:44:22;;;;;;;;;;;0.20;99.90;;;;;;5069472;28;19920;-76
2024/01/15 11:46:57;;;;;;;;;;;0.20;99.90;;;;;;5055679;28;20365;-75
2024/01/15 11:49:46;;;;;;;;;;;0.10;99.90;;;;;;5065315;28;19924;-76
2024/01/15 11:52:11;;;;;;;;;;;0.20;99.90;;;;;;5046791;28;19955;-76
2024/01/15 11:54:44;;;;;;;;;;;-0.40;99.90;;;;;;5053151;28;19916;-76
2024/01/15 11:57:17;;;;;;;;;;;0.10;99.90;;;;;;5058672;28;20007;-74
2024/01/15 11:59:43;;;;;;;;;;;-0.20;99.90;;;;;;5067016;28;19938;-76
2024/01/15 12:02:10;;;;;;;;;;;-0.10;99.90;;;;;;5054773;28;20428;-76
2024/01/15 12:04:36;;;;;;;;;;;-0.20;99.90;;;;;;5068544;28;19912;-76
2024/01/15 12:07:01;;;;;;;;;;;-0.20;99.90;;;;;;5048322;28;19912;-76
2024/01/15 12:09:27;;;;;;;;;;;-0.10;99.90;;;;;;5041000;28;19916;-75
2024/01/15 12:11:56;;;;;;;;;;;-0.30;99.90;;;;;;5051765;28;19966;-76
2024/01/15 12:14:22;;;;;;;;;;;-0.30;99.90;;;;;;5061351;28;19943;-76
2024/01/15 12:16:47;;;;;;;;;;;-0.10;99.90;;;;;;5067401;28;19984;-75
2024/01/15 12:19:14;;;;;;;;;;;-0.30;99.90;;;;;;5061146;28;19947;-76
2024/01/15 12:21:39;;;;;;;;;;;-0.30;99.90;;;;;;5049447;28;19909;-76
2024/01/15 12:24:07;;;;;;;;;;;-0.40;99.90;;;;;;5071828;28;20365;-75
2024/01/15 12:26:32;;;;;;;;;;;-0.30;99.90;;;;;;5068125;28;19917;-76
2024/01/15 12:29:00;;;;;;;;;;;-0.30;99.90;;;;;;5067119;28;20365;-76
2024/01/15 12:31:26;;;;;;;;;;;-0.50;99.90;;;;;;5044777;28;19909;-76
2024/01/15 12:33:51;;;;;;;;;;;-0.40;99.90;;;;;;5071992;28;19912;-76
2024/01/15 12:36:20;;;;;;;;;;;-0.40;99.90;;;;;;5077684;28;19908;-76
2024/01/15 12:38:46;;;;;;;;;;;-0.60;99.90;;;;;;5070250;28;19972;-76
2024/01/15 12:41:11;;;;;;;;;;;-0.40;99.90;;;;;;5048597;28;19948;-76
2024/01/15 12:43:37;;;;;;;;;;;-0.20;99.90;;;;;;5052252;28;19909;-74
2024/01/15 12:46:03;;;;;;;;;;;-0.30;99.90;;;;;;5045541;28;19966;-76
2024/01/15 12:48:28;;;;;;;;;;;-0.20;99.90;;;;;;5048907;28;19908;-76
2024/01/15 12:50:55;;;;;;;;;;;-0.60;99.90;;;;;;5070938;28;19936;-76
2024/01/15 12:53:22;;;;;;;;;;;;;;;;;;5042133;28;20231;-76
2024/01/15 12:55:48;;;;;;;;;;;-0.50;99.90;;;;;;5058348;28;19970;-75
2024/01/15 12:58:13;;;;;;;;;;;-0.70;99.90;;;;;;5044727;28;19917;-77
2024/01/15 13:00:39;;;;;;;;;;;-0.40;99.90;;;;;;5042018;28;19909;-77
2024/01/15 13:03:05;;;;;;;;;;;-0.50;99.90;;;;;;5067822;28;19983;-76
2024/01/15 13:05:31;;;;;;;;;;;-0.60;99.90;;;;;;5069832;28;19975;-76
2024/01/15 13:07:57;;;;;;;;;;;-0.60;99.90;;;;;;5044997;28;20295;-76
2024/01/15 13:10:22;;;;;;;;;;;-0.50;99.90;;;;;;5066963;28;20010;-77
2024/01/15 13:12:47;;;;;;;;;;;-0.50;99.90;;;;;;5067020;28;19912;-77
2024/01/15 13:15:13;;;;;;;;;;;-0.60;99.90;;;;;;5052610;28;19912;-75
2024/01/15 13:17:39;;;;;;;;;;;-0.60;99.90;;;;;;5052077;28;19909;-76
2024/01/15 13:20:06;;;;;;;;;;;-0.50;99.90;;;;;;5042008;28;20363;-77
2024/01/15 13:22:32;;;;;;;;;;;-0.60;99.90;;;;;;5063671;28;19916;-75
2024/01/15 13:24:57;;;;;;;;;;;-0.60;99.90;;;;;;5072207;28;19999;-74
2024/01/15 13:27:23;;;;;;;;;;;-0.60;99.90;;;;;;5040423;28;19923;-77
2024/01/15 13:29:49;;;;;;;;;;;-0.60;99.90;;;;;;5066477;28;19948;-76
2024/01/15 13:32:17;;;;;;;;;;;-0.60;99.90;;;;;;5046356;28;19909;-76
2024/01/15 13:34:42;;;;;;;;;;;-0.70;99.90;;;;;;5048351;28;20014;-75
2024/01/15 13:37:09;;;;;;;;;;;-0.70;99.90;;;;;;5069006;28;19932;-77
2024/01/15 13:39:36;;;;;;;;;;;-0.70;99.90;;;;;;5069455;28;19930;-76
2024/01/15 13:42:02;;;;;;;;;;;-0.70;99.90;;;;;;5052912;28;19913;-77
2024/01/15 13:44:28;;;;;;;;;;;-0.60;99.90;;;;;;5066369;28;19916;-77
2024/01/15 13:46:53;;;;;;;;;;;-0.60;99.90;;;;;;5067560;28;19919;-76
2024/01/15 13:49:18;;;;;;;;;;;-0.70;99.90;;;;;;5048851;28;19952;-76
2024/01/15 13:51:44;;;;;;;;;;;-0.70;99.90;;;;;;5061617;28;19908;-76
2024/01/15 13:54:09;;;;;;;;;;;-0.70;99.90;;;;;;5044624;28;19920;-76
2024/01/15 13:56:35;;;;;;;;;;;-0.80;99.90;;;;;;5066961;28;19932;-77
2024/01/15 13:59:00;;;;;;;;;;;-0.70;99.90;;;;;;5059367;28;20511;-76
2024/01/15 14:01:27;;;;;;;;;;;-0.70;99.90;;;;;;5052257;28;19916;-76
2024/01/15 14:03:53;;;;;;;;;;;-0.70;99.90;;;;;;5061483;28;19970;-76
2024/01/15 14:06:18;;;;;;;;;;;-0.70;99.90;;;;;;5049735;28;19916;-76
2024/01/15 14:08:44;;;;;;;;;;;-0.70;99.90;;;;;;5053914;28;19909;-77
2024/01/15 14:11:10;;;;;;;;;;;-0.70;99.90;;;;;;5054159;28;19908;-76
2024/01/15 14:13:35;;;;;;;;;;;-0.80;99.90;;;;;;5066662;28;20289;-77
2024/01/15 14:16:01;;;;;;;;;;;-0.80;99.90;;;;;;5066777;28;19919;-75
2024/01/15 14:18:27;;;;;;;;;;;-0.80;99.90;;;;;;5066185;28;19916;-77